Latest Weather Observations for Mortlake

IDV60801

Issued at 5:35 am EST Friday 19 September 2014 (issued every 30 minutes, with the page automatically refreshed every 10 minutes)

About weather observations | Map of weather stations | Latest weather observations for VIC | Other Formats
Station Details ID: 090176 Name: MORTLAKE RACECOURSE Lat: -38.07 Lon: 142.77 Height: 130.0 m
Data from the previous 72 hours. | See also: Recent months at Mortlake
Date/Time
EST
Temp
°C
App
Temp
°C
Dew
Point
Rel
Hum
%
Delta-T
°C
Wind Press
QNH
hPa
Press
MSL
hPa
Rain
since 9 am
mm
Dir
 
Spd
km/h
Gust
km/h
Spd
kts
Gust
kts
19/05:30am 1.9 -1.5 1.9 100 0.0 NNW 9 9 5 5 1025.0 1025.1 0.2
19/05:00am 1.4 -1.7 1.3 99 0.0 NNW 7 9 4 5 1024.9 1025.0 0.2
19/04:30am 1.9 -1.1 1.8 99 0.0 NNW 7 9 4 5 1024.7 1024.8 0.2
19/04:00am 2.9 0.2 2.9 100 0.0 NNW 6 7 3 4 1024.7 1024.8 0.2
19/03:30am 3.0 0.4 3.0 100 0.0 NNW 6 6 3 3 1024.6 1024.7 0.2
19/03:00am 2.3 -0.7 2.3 100 0.0 NNW 7 9 4 5 1024.7 1024.8 0.2
19/02:30am 1.5 -1.6 1.4 99 0.0 NNW 7 9 4 5 1025.0 1025.1 0.2
19/02:00am 0.7 -2.3 0.6 99 0.0 NNW 6 7 3 4 1025.1 1025.2 0.2
19/01:30am 0.9 -2.1 0.8 99 0.0 NNW 6 7 3 4 1025.3 1025.4 0.2
19/01:00am 1.1 -1.9 1.0 99 0.0 NNW 6 7 3 4 1025.5 1025.6 0.2
19/12:30am 1.5 -1.4 1.4 99 0.0 NNW 6 7 3 4 1025.5 1025.6 0.2
19/12:00am 1.8 -1.2 1.7 99 0.0 NNW 7 9 4 5 1025.7 1025.8 0.2
 
Date/Time
EST
Temp
°C
App
Temp
°C
Dew
Point
Rel
Hum
%
Delta-T
°C
Wind Press
QNH
hPa
Press
MSL
hPa
Rain
since 9 am
mm
Dir
 
Spd
km/h
Gust
km/h
Spd
kts
Gust
kts
18/11:30pm 1.6 -1.5 1.5 99 0.0 NNW 7 7 4 4 1025.8 1025.9 0.2
18/11:00pm 1.7 -1.2 1.6 99 0.0 NNW 6 7 3 4 1026.1 1026.3 0.2
18/10:30pm 2.1 -0.7 2.0 99 0.0 SW 6 6 3 3 1026.1 1026.3 0.2
18/10:00pm 2.2 -0.6 2.1 99 0.0 SW 6 6 3 3 1026.0 1026.1 0.2
18/09:30pm 2.7 1.1 2.6 99 0.0 CALM 0 0 0 0 1026.0 1026.1 0.2
18/09:00pm 3.0 1.5 2.9 99 0.0 CALM 0 0 0 0 1025.9 1026.0 0.2
18/08:30pm 3.8 2.4 3.7 99 0.0 CALM 0 0 0 0 1025.7 1025.8 0.2
18/08:00pm 3.8 2.3 3.2 96 0.2 CALM 0 0 0 0 1025.7 1025.8 0.2
18/07:30pm 6.5 4.6 4.7 88 0.8 SW 4 6 2 3 1025.5 1025.6 0.2
18/07:00pm 6.3 4.0 4.6 89 0.7 SSW 6 9 3 5 1025.2 1025.3 0.2
18/06:30pm 7.1 4.2 4.6 84 1.1 SSW 9 11 5 6 1025.2 1025.3 0.2
18/06:00pm 8.9 5.8 5.5 79 1.5 SSW 11 11 6 6 1025.0 1025.1 0.2
18/05:30pm 10.6 6.8 5.8 72 2.2 SSW 15 20 8 11 1024.8 1024.9 0.2
18/05:00pm 10.5 6.5 6.5 76 1.9 SSW 17 24 9 13 1024.5 1024.6 0.2
18/04:30pm 12.0 7.7 6.9 71 2.5 SSW 19 28 10 15 1024.2 1024.3 0.2
18/04:00pm 11.2 6.7 5.9 70 2.5 SSW 19 24 10 13 1024.1 1024.2 0.2
18/03:30pm 12.1 7.6 6.8 70 2.5 SSW 20 28 11 15 1024.0 1024.1 0.2
18/03:00pm 12.0 7.2 7.3 73 2.3 S 22 32 12 17 1023.8 1023.9 0.2
18/02:30pm 12.8 7.7 7.5 70 2.6 SSW 24 32 13 17 1023.9 1024.0 0.2
18/02:00pm 13.0 8.2 7.2 68 2.8 SSW 22 37 12 20 1023.8 1023.9 0.0
18/01:30pm 12.9 7.8 7.6 70 2.6 SSW 24 35 13 19 1023.8 1023.9 0.0
18/01:00pm 12.6 7.4 7.3 70 2.6 SSW 24 33 13 18 1024.0 1024.1 0.0
18/12:30pm 11.5 6.9 6.4 71 2.4 SSW 20 32 11 17 1024.1 1024.2 0.0
18/12:00pm 12.2 7.8 9.0 81 1.6 SSW 22 33 12 18 1024.0 1024.1 0.0
18/11:30am 11.3 7.1 8.2 81 1.5 SW 20 28 11 15 1024.1 1024.2 0.0
18/11:00am 11.3 7.0 7.8 79 1.7 SSW 20 30 11 16 1024.1 1024.2 0.0
18/10:30am 9.7 5.7 8.3 91 0.7 SSW 19 32 10 17 1024.4 1024.5 0.0
18/10:00am 10.7 7.9 8.5 86 1.1 SSW 13 22 7 12 1024.2 1024.3 0.0
18/09:30am 10.1 7.6 8.4 89 0.8 S 11 15 6 8 1024.1 1024.2 0.0
18/09:00am 9.5 7.0 8.3 92 0.6 WSW 11 15 6 8 1024.0 1024.1 3.4
18/08:30am 8.8 6.3 8.4 97 0.2 WSW 11 15 6 8 1023.7 1023.8 3.4
18/08:00am 7.1 5.1 7.0 99 0.0 WNW 7 11 4 6 1023.5 1023.6 3.4
18/07:30am 6.1 3.9 6.0 99 0.0 WNW 7 9 4 5 1023.3 1023.4 3.4
18/07:00am 5.8 3.7 5.7 99 0.0 W 6 7 3 4 1023.0 1023.1 3.4
18/06:30am 6.4 4.4 6.3 99 0.0 W 6 9 3 5 1022.8 1022.9 3.2
18/06:00am 6.4 4.8 6.3 99 0.0 WSW 4 6 2 3 1022.2 1022.3 3.0
18/05:30am 7.0 4.6 6.9 99 0.0 WSW 9 15 5 8 1021.9 1022.0 3.0
18/05:00am 6.0 3.9 5.9 99 0.0 WNW 6 9 3 5 1021.6 1021.8 2.4
18/04:30am 5.6 3.8 5.5 99 0.0 W 4 7 2 4 1021.5 1021.7 2.4
18/04:00am 7.0 4.9 6.7 98 0.1 W 7 11 4 6 1021.3 1021.5 2.4
18/03:30am 7.1 5.1 7.0 99 0.0 WSW 7 11 4 6 1021.0 1021.2 2.4
18/03:00am 7.2 4.8 6.9 98 0.1 WSW 9 13 5 7 1020.9 1021.1 2.4
18/02:30am 6.8 3.9 6.7 99 0.0 W 11 17 6 9 1020.9 1021.1 2.4
18/02:00am 6.4 3.8 6.3 99 0.0 W 9 13 5 7 1021.0 1021.2 2.4
18/01:30am 5.5 3.1 5.4 99 0.0 WNW 7 11 4 6 1021.0 1021.2 2.0
18/01:00am 6.8 3.9 6.7 99 0.0 W 11 17 6 9 1021.2 1021.4 2.0
18/12:30am 7.0 4.6 6.9 99 0.0 W 9 13 5 7 1021.2 1021.4 2.0
18/12:00am 7.2 4.4 7.1 99 0.0 W 11 17 6 9 1021.1 1021.3 1.8
 
Date/Time
EST
Temp
°C
App
Temp
°C
Dew
Point
Rel
Hum
%
Delta-T
°C
Wind Press
QNH
hPa
Press
MSL
hPa
Rain
since 9 am
mm
Dir
 
Spd
km/h
Gust
km/h
Spd
kts
Gust
kts
17/11:30pm 7.3 4.2 7.2 99 0.0 WSW 13 26 7 14 1021.3 1021.5 1.8
17/11:00pm 7.5 3.3 7.4 99 0.0 WSW 19 30 10 16 1021.0 1021.2 1.6
17/10:30pm 7.2 4.1 7.1 99 0.0 W 13 22 7 12 1021.0 1021.2 1.6
17/10:00pm 7.2 3.7 7.1 99 0.0 W 15 22 8 12 1021.0 1021.2 1.6
17/09:30pm 7.2 4.1 7.1 99 0.0 W 13 19 7 10 1020.9 1021.1 1.6
17/09:00pm 7.3 3.7 6.7 96 0.3 W 15 28 8 15 1020.5 1020.7 1.6
17/08:30pm 7.3 3.4 6.9 97 0.2 W 17 28 9 15 1020.2 1020.4 1.6
17/08:00pm 7.3 3.9 5.9 91 0.6 W 13 17 7 9 1020.0 1020.2 1.4
17/07:30pm 7.7 3.6 6.3 91 0.6 W 17 30 9 16 1019.6 1019.7 1.4
17/07:00pm 7.6 4.0 6.7 94 0.4 WSW 15 22 8 12 1019.4 1019.5 1.4
17/06:30pm 8.3 3.8 6.1 86 1.0 WSW 19 30 10 16 1019.3 1019.4 1.0
17/06:00pm 8.4 5.2 6.7 89 0.8 W 13 19 7 10 1018.9 1019.0 1.0
17/05:30pm 9.5 5.1 6.4 81 1.4 WSW 19 30 10 16 1018.5 1018.6 1.0
17/05:00pm 9.8 5.2 6.5 80 1.5 SW 20 30 11 16 1018.2 1018.3 1.0
17/04:30pm 9.6 3.5 6.7 82 1.4 SW 28 39 15 21 1018.0 1018.1 1.0
17/04:00pm 8.7 1.8 7.2 90 0.7 SW 33 56 18 30 1017.7 1017.8 1.0
17/03:50pm 10.1 3.4 5.5 73 2.1 SW 30 48 16 26 1017.5 1017.6 1.0
17/03:30pm 11.7 5.1 6.2 69 2.6 SW 30 44 16 24 1017.1 1017.2 1.0
17/03:00pm 10.1 2.6 6.1 76 1.9 SW 35 48 19 26 1017.0 1017.1 1.0
17/02:30pm 10.1 2.6 6.3 77 1.8 SW 35 56 19 30 1016.8 1016.9 1.0
17/02:27pm 10.4 3.6 6.7 78 1.8 SW 32 52 17 28 1016.7 1016.8 1.0
17/02:00pm 9.8 4.0 7.9 88 0.9 SW 28 41 15 22 1016.7 1016.8 1.0
17/01:42pm 9.3 2.8 8.2 93 0.5 SW 32 54 17 29 1016.7 1016.8 1.0
17/01:30pm 10.2 4.6 8.8 91 0.7 SW 28 43 15 23 1016.5 1016.6 0.8
17/01:00pm 11.3 5.2 8.3 82 1.5 WSW 30 50 16 27 1016.2 1016.3 0.2
17/12:30pm 8.6 0.8 6.6 87 0.9 WSW 37 70 20 38 1016.5 1016.6 0.0
17/12:28pm 10.1 3.0 6.4 78 1.7 WSW 33 70 18 38 1016.4 1016.5 0.0
17/12:00pm 10.9 5.2 8.3 84 1.3 WSW 28 50 15 27 1016.3 1016.4 0.0
17/11:36am 12.0 5.3 5.6 65 3.0 WSW 30 48 16 26 1015.9 1016.0 0.0
17/11:30am 12.1 5.4 5.5 64 3.1 WSW 30 46 16 25 1016.0 1016.1 0.0
17/11:00am 11.9 5.1 5.1 63 3.1 WSW 30 44 16 24 1016.0 1016.1 0.0
17/10:30am 11.8 4.8 6.1 68 2.7 WSW 32 46 17 25 1015.9 1016.0 0.0
17/10:18am 11.4 5.1 5.5 67 2.7 WSW 28 48 15 26 1015.8 1015.9 0.0
17/10:00am 11.6 6.7 8.5 81 1.5 WSW 24 39 13 21 1015.5 1015.6 0.0
17/09:30am 10.4 6.5 9.3 93 0.6 W 20 33 11 18 1015.3 1015.4 0.0
17/09:00am 10.4 6.6 9.2 92 0.6 W 19 28 10 15 1015.1 1015.2 0.4
17/08:30am 9.4 5.5 8.6 95 0.4 W 19 30 10 16 1015.0 1015.1 0.4
17/08:00am 8.6 4.7 8.5 99 0.0 WNW 19 28 10 15 1014.7 1014.8 0.4
17/07:30am 7.5 4.0 7.4 99 0.0 WNW 15 19 8 10 1014.4 1014.5 0.4
17/07:00am 6.0 2.6 5.9 99 0.0 NW 13 15 7 8 1014.0 1014.1 0.4
17/06:30am 5.8 2.4 5.7 99 0.0 WNW 13 15 7 8 1013.9 1014.0 0.4
17/06:00am 6.6 3.3 6.5 99 0.0 WNW 13 17 7 9 1013.9 1014.0 0.4
17/05:30am 6.5 3.2 6.4 99 0.0 WNW 13 17 7 9 1013.6 1013.8 0.2
17/05:00am 7.4 3.5 7.3 99 0.0 WNW 17 22 9 12 1013.5 1013.7 0.2
17/04:30am 6.6 3.7 6.5 99 0.0 WNW 11 15 6 8 1013.4 1013.6 0.2
17/04:00am 7.5 4.4 7.4 99 0.0 WNW 13 17 7 9 1013.2 1013.4 0.2
17/03:30am 7.1 4.3 7.0 99 0.0 NW 11 15 6 8 1013.2 1013.4 0.2
17/03:00am 8.2 4.9 8.1 99 0.0 WNW 15 24 8 13 1013.2 1013.4 0.2
17/02:30am 8.9 5.4 8.8 99 0.0 W 17 24 9 13 1013.2 1013.4 0.2
17/02:00am 9.3 5.9 9.2 99 0.0 W 17 30 9 16 1013.2 1013.4 0.2
17/01:30am 9.3 5.3 9.2 99 0.0 WNW 20 30 11 16 1013.2 1013.4 0.2
17/01:00am 8.9 5.4 8.8 99 0.0 NW 17 24 9 13 1013.3 1013.5 0.2
17/12:30am 6.6 4.1 6.5 99 0.0 NNW 9 15 5 8 1013.4 1013.6 0.2
17/12:00am 7.6 5.9 7.5 99 0.0 NW 6 9 3 5 1013.5 1013.7 0.2
 
Date/Time
EST
Temp
°C
App
Temp
°C
Dew
Point
Rel
Hum
%
Delta-T
°C
Wind Press
QNH
hPa
Press
MSL
hPa
Rain
since 9 am
mm
Dir
 
Spd
km/h
Gust
km/h
Spd
kts
Gust
kts
16/11:30pm 7.6 5.7 7.5 99 0.0 NW 7 9 4 5 1013.5 1013.7 0.2
16/11:00pm 7.6 5.7 7.5 99 0.0 NW 7 9 4 5 1013.7 1013.9 0.2
16/10:30pm 6.9 5.0 6.8 99 0.0 NNW 6 7 3 4 1014.0 1014.1 0.2
16/10:00pm 5.8 3.5 5.7 99 0.0 NW 7 9 4 5 1014.1 1014.2 0.2
16/09:30pm 6.1 3.9 6.0 99 0.0 WNW 7 7 4 4 1014.1 1014.2 0.2
16/09:00pm 6.2 4.1 5.9 98 0.1 WNW 6 7 3 4 1014.1 1014.2 0.2
16/08:30pm 9.1 7.4 8.5 96 0.3 W 7 9 4 5 1014.1 1014.2 0.2
16/08:00pm 9.7 7.7 8.5 92 0.6 W 9 13 5 7 1014.0 1014.1 0.2
16/07:30pm 10.8 9.5 9.9 94 0.5 WSW 7 11 4 6 1013.6 1013.8 0.2
16/07:00pm 10.9 9.1 9.5 91 0.7 W 9 15 5 8 1013.5 1013.7 0.2
16/06:30pm 11.2 9.5 9.8 91 0.7 W 9 19 5 10 1013.4 1013.6 0.2
16/06:00pm 11.8 8.9 9.7 87 1.1 WSW 15 22 8 12 1013.3 1013.5 0.2
16/05:30pm 12.2 9.8 9.9 86 1.2 SW 13 19 7 10 1012.9 1013.0 0.2
16/05:00pm 12.9 9.1 9.2 78 1.9 SSW 19 24 10 13 1012.7 1012.8 0.2
16/04:30pm 13.3 9.7 9.7 79 1.9 SSW 19 26 10 14 1012.6 1012.7 0.2
16/04:00pm 13.1 9.2 9.5 79 1.8 SW 20 30 11 16 1012.7 1012.8 0.2
16/03:30pm 13.3 9.1 9.9 80 1.8 SW 22 30 12 16 1012.7 1012.8 0.2
16/03:00pm 14.1 9.7 10.3 78 2.0 SSW 24 35 13 19 1012.5 1012.6 0.2
16/02:30pm 13.6 8.5 9.3 75 2.2 SW 26 33 14 18 1012.6 1012.7 0.2
16/02:00pm 13.5 8.7 9.0 74 2.3 SW 24 35 13 19 1012.5 1012.6 0.2
16/01:30pm 13.3 7.6 8.2 71 2.5 SW 28 37 15 20 1012.4 1012.5 0.0
16/01:00pm 12.8 7.9 8.3 74 2.2 SW 24 33 13 18 1012.4 1012.5 0.0
16/12:30pm 12.5 8.4 10.2 86 1.2 SW 22 32 12 17 1012.6 1012.7 0.0
16/12:00pm 11.4 7.0 10.3 93 0.6 SW 24 33 13 18 1013.0 1013.1 0.0
16/11:30am 12.5 8.4 10.2 86 1.2 SW 22 32 12 17 1013.0 1013.1 0.0
16/11:00am 12.2 7.6 9.6 84 1.3 SW 24 35 13 19 1013.0 1013.1 0.0
16/10:30am 12.4 7.7 10.6 89 0.9 SW 26 37 14 20 1013.1 1013.2 0.0
16/10:00am 12.1 7.0 10.7 91 0.7 SW 28 37 15 20 1013.0 1013.1 0.0
16/09:30am 12.1 7.3 11.5 96 0.3 SW 28 37 15 20 1012.8 1012.9 0.0
16/09:00am 11.2 7.4 11.0 99 0.1 SW 22 33 12 18 1012.8 1012.9 0.0
16/08:30am 11.2 7.4 11.0 99 0.1 SW 22 30 12 16 1012.6 1012.7 0.0
16/08:00am 11.1 7.6 10.9 99 0.1 SW 20 28 11 15 1012.4 1012.5 0.0
16/07:30am 11.3 7.9 11.1 99 0.1 SW 20 33 11 18 1012.0 1012.1 0.0
16/07:00am 11.4 8.0 11.2 99 0.1 SSW 20 32 11 17 1011.6 1011.7 0.0
16/06:30am 11.4 8.9 11.2 99 0.1 SSW 15 19 8 10 1011.3 1011.4 0.0
16/06:00am 11.5 8.3 11.3 99 0.1 SSW 19 26 10 14 1010.8 1010.9 0.0

Other Formats:

Comma delimited format used in spreadsheet applications
http://www.bom.gov.au/fwo/IDV60801/IDV60801.94840.axf

JavaScript Object Notation format (JSON) in row-major order
http://www.bom.gov.au/fwo/IDV60801/IDV60801.94840.json